createdAt,value
2023-05-24T00:00:53.552Z,6.39
2023-05-24T00:03:21.621Z,6.36
2023-05-24T00:05:48.414Z,6.32
2023-05-24T00:08:16.385Z,6.28
2023-05-24T00:10:43.236Z,6.28
2023-05-24T00:13:09.928Z,6.24
2023-05-24T00:15:36.412Z,6.23
2023-05-24T00:18:02.958Z,6.23
2023-05-24T00:20:29.491Z,6.21
2023-05-24T00:22:56.288Z,6.19
2023-05-24T00:25:22.981Z,6.16
2023-05-24T00:27:49.453Z,6.14
2023-05-24T00:30:15.998Z,6.11
2023-05-24T00:32:42.540Z,6.06
2023-05-24T00:35:09.253Z,5.99
2023-05-24T00:37:37.358Z,5.96
2023-05-24T00:40:04.903Z,5.95
2023-05-24T00:42:31.334Z,5.94
2023-05-24T00:44:57.757Z,5.92
2023-05-24T00:47:24.337Z,5.91
2023-05-24T00:49:51.208Z,5.94
2023-05-24T00:52:17.949Z,5.94
2023-05-24T00:54:44.810Z,5.91
2023-05-24T00:57:13.906Z,5.88
2023-05-24T00:59:41.076Z,5.84
2023-05-24T01:02:07.554Z,5.84
2023-05-24T01:04:34.071Z,5.83
2023-05-24T01:07:17.948Z,5.82
2023-05-24T01:10:21.713Z,5.80
2023-05-24T01:13:19.095Z,5.79
2023-05-24T01:16:05.326Z,5.78
2023-05-24T01:18:39.622Z,5.78
2023-05-24T01:21:19.989Z,5.81
2023-05-24T01:24:13.921Z,5.80
2023-05-24T01:27:03.832Z,5.75
2023-05-24T01:29:31.766Z,5.70
2023-05-24T01:31:58.399Z,5.71
2023-05-24T01:34:27.862Z,5.71
2023-05-24T01:36:54.415Z,5.71
2023-05-24T01:39:22.815Z,5.66
2023-05-24T01:42:20.249Z,5.64
2023-05-24T01:45:08.777Z,5.62
2023-05-24T01:47:55.688Z,5.62
2023-05-24T01:50:31.511Z,5.59
2023-05-24T01:53:03.673Z,5.50
2023-05-24T01:55:32.772Z,5.41
2023-05-24T01:58:03.401Z,5.38
2023-05-24T02:00:33.010Z,5.39
2023-05-24T02:02:59.733Z,5.39
2023-05-24T02:05:26.198Z,5.46
2023-05-24T02:07:52.736Z,5.48
2023-05-24T02:10:19.395Z,5.45
2023-05-24T02:12:45.890Z,5.40
2023-05-24T02:15:14.668Z,5.37
2023-05-24T02:17:42.930Z,5.32
2023-05-24T02:20:10.836Z,5.29
2023-05-24T02:22:38.327Z,5.27
2023-05-24T02:25:05.270Z,5.25
2023-05-24T02:27:31.790Z,5.24
2023-05-24T02:29:58.292Z,5.24
2023-05-24T02:32:24.798Z,5.25
2023-05-24T02:34:51.244Z,5.25
2023-05-24T02:37:17.734Z,5.26
2023-05-24T02:39:44.152Z,5.28
2023-05-24T02:42:11.436Z,5.33
2023-05-24T02:44:37.928Z,5.33
2023-05-24T02:47:04.688Z,5.34
2023-05-24T02:49:31.369Z,5.33
2023-05-24T02:51:57.789Z,5.36
2023-05-24T02:54:24.257Z,5.35
2023-05-24T02:56:51.740Z,5.35
2023-05-24T02:59:18.244Z,5.32
2023-05-24T03:01:44.960Z,5.29
2023-05-24T03:04:11.649Z,5.31
2023-05-24T03:06:38.241Z,5.33
2023-05-24T03:09:05.446Z,5.36
2023-05-24T03:11:31.924Z,5.36
2023-05-24T03:13:58.368Z,5.33
2023-05-24T03:16:25.338Z,5.31
2023-05-24T03:18:51.868Z,5.30
2023-05-24T03:21:20.626Z,5.29
2023-05-24T03:23:47.383Z,5.28
2023-05-24T03:26:13.873Z,5.23
2023-05-24T03:28:43.237Z,5.22
2023-05-24T03:31:09.982Z,5.22
2023-05-24T03:33:37.147Z,5.25
2023-05-24T03:36:04.331Z,5.27
2023-05-24T03:38:31.787Z,5.28
2023-05-24T03:40:58.279Z,5.31
2023-05-24T03:43:24.957Z,5.32
2023-05-24T03:45:56.673Z,5.36
2023-05-24T03:48:23.133Z,5.39
2023-05-24T03:50:51.258Z,5.40
2023-05-24T03:53:17.734Z,5.41
2023-05-24T03:55:44.230Z,5.47
2023-05-24T03:58:13.489Z,5.57
2023-05-24T04:00:40.144Z,5.63
2023-05-24T04:03:09.028Z,5.66
2023-05-24T04:05:35.655Z,5.67
2023-05-24T04:08:02.932Z,5.71
2023-05-24T04:10:29.576Z,5.76
2023-05-24T04:12:57.375Z,5.83
2023-05-24T04:15:24.181Z,5.83
2023-05-24T04:17:54.908Z,5.85
2023-05-24T04:20:25.394Z,5.89
2023-05-24T04:22:52.153Z,5.95
2023-05-24T04:25:18.744Z,6.06
2023-05-24T04:27:48.193Z,6.13
2023-05-24T04:30:18.481Z,6.19
2023-05-24T04:32:45.026Z,6.23
2023-05-24T04:35:12.348Z,6.26
2023-05-24T04:37:40.283Z,6.26
2023-05-24T04:40:08.099Z,6.29
2023-05-24T04:42:35.836Z,6.40
2023-05-24T04:45:02.401Z,6.48
2023-05-24T04:47:28.932Z,6.58
2023-05-24T04:49:55.538Z,6.71
2023-05-24T04:52:22.102Z,6.84
2023-05-24T04:54:49.474Z,6.97
2023-05-24T04:57:16.062Z,7.08
2023-05-24T04:59:42.626Z,7.19
2023-05-24T05:02:09.195Z,7.33
2023-05-24T05:04:35.705Z,7.44
2023-05-24T05:07:03.762Z,7.58
2023-05-24T05:09:30.362Z,7.73
2023-05-24T05:11:56.935Z,7.92
2023-05-24T05:14:23.416Z,8.38
2023-05-24T05:16:50.179Z,9.81
2023-05-24T05:19:16.762Z,12.13
2023-05-24T05:21:43.277Z,14.01
2023-05-24T05:24:09.834Z,15.16
2023-05-24T05:26:36.394Z,16.04
2023-05-24T05:29:02.842Z,16.67
2023-05-24T05:31:29.865Z,17.16
2023-05-24T05:33:56.336Z,17.69
2023-05-24T05:36:22.838Z,17.85
2023-05-24T05:38:49.416Z,18.16
2023-05-24T05:41:16.077Z,18.48
2023-05-24T05:43:42.578Z,18.85
2023-05-24T05:46:11.078Z,18.89
2023-05-24T05:48:37.567Z,19.02
2023-05-24T05:51:04.038Z,19.14
2023-05-24T05:53:30.465Z,19.27
2023-05-24T05:55:56.923Z,19.17
2023-05-24T05:58:23.395Z,19.30
2023-05-24T06:00:49.872Z,19.62
2023-05-24T06:03:16.470Z,19.89
2023-05-24T06:05:43.224Z,19.72
2023-05-24T06:08:09.629Z,19.57
2023-05-24T06:10:36.153Z,19.21
2023-05-24T06:13:03.872Z,19.24
2023-05-24T06:15:30.734Z,19.64
2023-05-24T06:17:57.263Z,19.89
2023-05-24T06:20:23.790Z,19.91
2023-05-24T06:22:50.750Z,19.76
2023-05-24T06:25:19.468Z,19.44
2023-05-24T06:27:46.096Z,19.12
2023-05-24T06:30:13.488Z,19.59
2023-05-24T06:32:40.398Z,19.51
2023-05-24T06:35:07.957Z,19.73
2023-05-24T06:37:34.756Z,20.00
2023-05-24T06:40:01.551Z,19.39
2023-05-24T06:42:28.018Z,19.42
2023-05-24T06:44:54.575Z,19.91
2023-05-24T06:47:22.393Z,18.49
2023-05-24T06:49:49.876Z,17.74
2023-05-24T06:52:16.455Z,17.31
2023-05-24T06:54:43.003Z,17.69
2023-05-24T06:57:09.696Z,17.63
2023-05-24T06:59:36.233Z,16.79
2023-05-24T07:02:04.236Z,16.44
2023-05-24T07:04:31.492Z,17.21
2023-05-24T07:06:58.488Z,17.38
2023-05-24T07:09:25.260Z,16.13
2023-05-24T07:11:52.333Z,15.71
2023-05-24T07:14:18.819Z,15.40
2023-05-24T07:16:45.368Z,15.18
2023-05-24T07:19:13.429Z,15.31
2023-05-24T07:21:39.893Z,15.22
2023-05-24T07:24:07.023Z,14.55
2023-05-24T07:26:33.513Z,14.55
2023-05-24T07:29:00.043Z,14.41
2023-05-24T07:31:27.306Z,14.38
2023-05-24T07:33:53.832Z,14.78
2023-05-24T07:36:21.414Z,14.89
2023-05-24T07:38:47.942Z,14.97
2023-05-24T07:41:14.492Z,15.32
2023-05-24T07:43:41.029Z,15.34
2023-05-24T07:46:07.733Z,15.34
2023-05-24T07:48:34.285Z,15.53
2023-05-24T07:51:00.781Z,15.43
2023-05-24T07:53:27.508Z,15.52
2023-05-24T07:55:54.048Z,15.86
2023-05-24T07:58:20.603Z,16.14
2023-05-24T08:00:47.083Z,16.09
2023-05-24T08:03:14.737Z,16.01
2023-05-24T08:05:41.765Z,15.88
2023-05-24T08:08:08.538Z,15.66
2023-05-24T08:10:35.092Z,15.68
2023-05-24T08:13:01.557Z,15.72
2023-05-24T08:15:28.035Z,16.20
2023-05-24T08:17:54.782Z,16.20
2023-05-24T08:20:21.475Z,15.48
2023-05-24T08:22:50.858Z,15.00
2023-05-24T08:25:17.388Z,14.42
2023-05-24T08:27:43.855Z,14.21
2023-05-24T08:30:11.197Z,14.59
2023-05-24T08:32:38.455Z,14.65
2023-05-24T08:35:18.217Z,14.79
2023-05-24T08:37:46.130Z,15.18
2023-05-24T08:40:12.825Z,15.57
2023-05-24T08:42:40.685Z,15.23
2023-05-24T08:45:15.080Z,15.07
2023-05-24T08:47:42.449Z,15.60
2023-05-24T08:50:09.409Z,16.11
2023-05-24T08:52:36.651Z,16.33
2023-05-24T08:55:06.817Z,16.56
2023-05-24T08:57:34.893Z,16.63
2023-05-24T09:00:01.833Z,17.18
2023-05-24T09:02:30.001Z,17.78
2023-05-24T09:04:57.163Z,17.10
2023-05-24T09:07:24.394Z,16.48
2023-05-24T09:10:00.876Z,15.94
2023-05-24T09:12:38.115Z,15.93
2023-05-24T09:15:07.421Z,16.28
2023-05-24T09:17:38.389Z,16.43
2023-05-24T09:20:10.705Z,16.68
2023-05-24T09:22:41.731Z,16.70
2023-05-24T09:25:11.206Z,16.38
2023-05-24T09:27:38.417Z,15.59
2023-05-24T09:30:10.158Z,15.38
2023-05-24T09:32:36.873Z,15.48
2023-05-24T09:35:08.389Z,15.20
2023-05-24T09:37:38.471Z,15.27
2023-05-24T09:40:07.015Z,15.38
2023-05-24T09:42:33.868Z,15.11
2023-05-24T09:45:08.876Z,14.66
2023-05-24T09:47:41.372Z,14.97
2023-05-24T09:50:17.279Z,14.76
2023-05-24T09:52:44.013Z,14.78
2023-05-24T09:55:20.582Z,14.51
2023-05-24T09:57:52.874Z,14.23
2023-05-24T10:00:24.927Z,14.51
2023-05-24T10:03:02.384Z,14.82
2023-05-24T10:05:29.608Z,14.90
2023-05-24T10:07:57.584Z,14.85
2023-05-24T10:10:29.089Z,15.15
2023-05-24T10:12:59.418Z,15.18
2023-05-24T10:15:27.454Z,14.83
2023-05-24T10:17:56.041Z,14.89
2023-05-24T10:20:24.089Z,15.11
2023-05-24T10:22:59.662Z,15.09
2023-05-24T10:25:28.464Z,14.91
2023-05-24T10:28:01.468Z,15.06
2023-05-24T10:30:41.469Z,14.92
2023-05-24T10:33:09.371Z,15.36
2023-05-24T10:35:38.126Z,15.60
2023-05-24T10:38:07.996Z,15.36
2023-05-24T10:40:34.987Z,15.42
2023-05-24T10:43:06.510Z,15.68
2023-05-24T10:45:42.075Z,15.50
2023-05-24T10:48:10.070Z,15.95
2023-05-24T10:50:36.660Z,15.84
2023-05-24T10:53:13.975Z,15.91
2023-05-24T10:56:00.229Z,15.98
2023-05-24T10:58:54.281Z,16.08
2023-05-24T11:01:28.128Z,15.94
2023-05-24T11:04:12.652Z,15.80
2023-05-24T11:07:11.712Z,15.25
2023-05-24T11:09:46.653Z,15.10
2023-05-24T11:12:18.166Z,15.34
2023-05-24T11:14:49.983Z,15.35
2023-05-24T11:17:16.861Z,15.42
2023-05-24T11:19:49.772Z,15.57
2023-05-24T11:22:17.021Z,15.70
2023-05-24T11:24:45.069Z,15.48
2023-05-24T11:27:13.642Z,15.41
2023-05-24T11:29:41.474Z,15.28
2023-05-24T11:32:09.097Z,15.41
2023-05-24T11:34:35.629Z,15.61
2023-05-24T11:37:03.265Z,15.57
2023-05-24T11:39:35.310Z,16.10
2023-05-24T11:42:04.734Z,16.28
2023-05-24T11:44:32.754Z,16.36
2023-05-24T11:47:00.617Z,16.73
2023-05-24T11:49:28.314Z,16.59
2023-05-24T11:51:57.020Z,16.65
2023-05-24T11:54:27.024Z,16.90
2023-05-24T11:56:54.600Z,16.92
2023-05-24T11:59:26.071Z,16.72
2023-05-24T12:02:01.514Z,16.27
2023-05-24T12:04:29.477Z,16.56
2023-05-24T12:06:56.886Z,16.94
2023-05-24T12:09:24.656Z,17.10
2023-05-24T12:11:52.534Z,17.24
2023-05-24T12:14:22.868Z,16.83
2023-05-24T12:16:50.040Z,16.39
2023-05-24T12:19:32.290Z,16.13
2023-05-24T12:22:01.637Z,16.41
2023-05-24T12:24:28.494Z,16.31
2023-05-24T12:27:02.011Z,16.22
2023-05-24T12:29:42.403Z,16.06
2023-05-24T12:32:13.186Z,16.11
2023-05-24T12:34:42.150Z,16.02
2023-05-24T12:37:09.660Z,16.01
2023-05-24T12:39:36.631Z,15.65
2023-05-24T12:42:04.485Z,16.09
2023-05-24T12:44:34.098Z,16.31
2023-05-24T12:47:02.969Z,16.55
2023-05-24T12:49:29.761Z,16.91
2023-05-24T12:51:57.170Z,17.09
2023-05-24T12:54:26.003Z,17.09
2023-05-24T12:56:55.824Z,16.66
2023-05-24T12:59:23.354Z,16.54
2023-05-24T13:01:52.926Z,16.54
2023-05-24T13:04:21.749Z,16.80
2023-05-24T13:06:49.084Z,16.31
2023-05-24T13:09:18.100Z,16.35
2023-05-24T13:11:45.326Z,16.81
2023-05-24T13:14:12.287Z,16.66
2023-05-24T13:16:38.792Z,16.87
2023-05-24T13:19:05.290Z,16.85
2023-05-24T13:21:32.342Z,16.65
2023-05-24T13:23:59.206Z,16.59
2023-05-24T13:26:25.735Z,16.98
2023-05-24T13:29:18.322Z,16.93
2023-05-24T13:31:38.804Z,16.80
2023-05-24T13:34:05.891Z,16.57
2023-05-24T13:36:32.963Z,16.18
2023-05-24T13:39:14.274Z,16.38
2023-05-24T13:41:43.467Z,16.22
2023-05-24T13:44:10.731Z,16.23
2023-05-24T13:46:37.870Z,16.29
2023-05-24T13:49:05.242Z,15.94
2023-05-24T13:51:31.841Z,15.83
2023-05-24T13:53:59.576Z,16.06
2023-05-24T13:56:32.404Z,16.19
2023-05-24T13:59:00.724Z,16.57
2023-05-24T14:01:27.433Z,16.53
2023-05-24T14:03:54.312Z,16.38
2023-05-24T14:06:21.874Z,16.01
2023-05-24T14:08:49.228Z,16.26
2023-05-24T14:11:16.108Z,16.58
2023-05-24T14:14:43.110Z,17.09
2023-05-24T14:16:30.205Z,17.33
2023-05-24T14:18:56.965Z,17.71
2023-05-24T14:21:25.709Z,17.30
2023-05-24T14:23:52.643Z,17.10
2023-05-24T14:26:20.083Z,16.95
2023-05-24T14:28:46.573Z,17.11
2023-05-24T14:31:13.197Z,16.62
2023-05-24T14:33:39.739Z,16.55
2023-05-24T14:36:06.646Z,16.02
2023-05-24T14:38:33.098Z,16.17
2023-05-24T14:41:00.400Z,16.35
2023-05-24T14:43:26.869Z,16.89
2023-05-24T14:45:53.330Z,17.41
2023-05-24T14:48:20.075Z,17.90
2023-05-24T14:50:46.812Z,18.14
2023-05-24T14:53:13.315Z,17.93
2023-05-24T14:55:42.499Z,17.63
2023-05-24T14:58:11.312Z,18.24
2023-05-24T15:00:38.600Z,18.48
2023-05-24T15:03:08.818Z,18.66
2023-05-24T15:05:36.093Z,18.04
2023-05-24T15:08:02.658Z,17.67
2023-05-24T15:10:29.378Z,17.76
2023-05-24T15:12:55.950Z,17.74
2023-05-24T15:15:22.797Z,17.29
2023-05-24T15:17:49.556Z,17.22
2023-05-24T15:20:16.357Z,17.41
2023-05-24T15:22:42.997Z,17.40
2023-05-24T15:25:10.075Z,17.10
2023-05-24T15:27:36.630Z,17.32
2023-05-24T15:30:03.428Z,17.40
2023-05-24T15:32:29.932Z,17.35
2023-05-24T15:34:56.386Z,16.80
2023-05-24T15:37:22.848Z,17.33
2023-05-24T15:39:49.644Z,17.25
2023-05-24T15:42:16.334Z,17.55
2023-05-24T15:44:42.845Z,17.49
2023-05-24T15:47:09.652Z,17.80
2023-05-24T15:49:36.136Z,17.86
2023-05-24T15:52:04.663Z,18.19
2023-05-24T15:54:31.746Z,18.03
2023-05-24T15:56:58.282Z,17.46
2023-05-24T15:59:25.107Z,17.04
2023-05-24T16:01:51.746Z,16.55
2023-05-24T16:04:18.450Z,16.54
2023-05-24T16:06:44.912Z,16.50
2023-05-24T16:09:11.369Z,16.51
2023-05-24T16:11:37.840Z,16.33
2023-05-24T16:14:05.268Z,16.25
2023-05-24T16:16:31.840Z,16.20
2023-05-24T16:18:58.309Z,15.72
2023-05-24T16:21:24.929Z,15.71
2023-05-24T16:23:51.771Z,15.68
2023-05-24T16:26:18.275Z,15.71
2023-05-24T16:28:45.407Z,15.73
2023-05-24T16:31:11.989Z,15.62
2023-05-24T16:33:39.585Z,15.57
2023-05-24T16:36:06.136Z,15.45
2023-05-24T16:38:32.663Z,15.32
2023-05-24T16:40:59.221Z,15.22
2023-05-24T16:43:25.919Z,15.23
2023-05-24T16:45:52.635Z,15.28
2023-05-24T16:48:21.282Z,15.21
2023-05-24T16:50:48.301Z,15.16
2023-05-24T16:53:14.766Z,15.12
2023-05-24T16:55:41.354Z,15.13
2023-05-24T16:58:07.918Z,15.09
2023-05-24T17:00:34.457Z,14.99
2023-05-24T17:03:01.099Z,14.87
2023-05-24T17:05:27.725Z,14.87
2023-05-24T17:07:54.901Z,14.88
2023-05-24T17:10:21.532Z,14.80
2023-05-24T17:12:47.985Z,14.84
2023-05-24T17:15:14.515Z,14.75
2023-05-24T17:17:41.065Z,14.50
2023-05-24T17:20:07.935Z,14.37
2023-05-24T17:22:34.541Z,14.25
2023-05-24T17:25:01.077Z,14.14
2023-05-24T17:27:27.578Z,14.13
2023-05-24T17:29:54.020Z,14.17
2023-05-24T17:32:20.544Z,14.10
2023-05-24T17:34:47.169Z,14.09
2023-05-24T17:37:13.633Z,13.99
2023-05-24T17:39:40.068Z,14.02
2023-05-24T17:42:07.282Z,14.04
2023-05-24T17:44:33.857Z,14.03
2023-05-24T17:47:01.546Z,14.00
2023-05-24T17:49:32.313Z,13.89
2023-05-24T17:52:00.775Z,13.81
2023-05-24T17:54:27.632Z,13.73
2023-05-24T17:56:54.184Z,13.78
2023-05-24T17:59:20.666Z,13.71
2023-05-24T18:01:47.263Z,13.70
2023-05-24T18:04:13.966Z,13.73
2023-05-24T18:06:40.489Z,13.70
2023-05-24T18:09:06.966Z,13.64
2023-05-24T18:11:33.427Z,13.68
2023-05-24T18:14:00.510Z,13.60
2023-05-24T18:16:27.270Z,13.63
2023-05-24T18:18:54.473Z,13.69
2023-05-24T18:21:20.985Z,13.73
2023-05-24T18:23:47.456Z,13.66
2023-05-24T18:26:13.901Z,13.58
2023-05-24T18:28:42.120Z,13.56
2023-05-24T18:31:14.350Z,13.57
2023-05-24T18:33:40.984Z,13.58
2023-05-24T18:36:07.756Z,13.54
2023-05-24T18:38:34.813Z,13.47
2023-05-24T18:41:05.712Z,13.48
2023-05-24T18:43:32.855Z,13.51
2023-05-24T18:45:59.294Z,13.47
2023-05-24T18:48:25.921Z,13.47
2023-05-24T18:50:52.349Z,13.47
2023-05-24T18:53:18.844Z,13.48
2023-05-24T18:55:47.249Z,13.49
2023-05-24T18:58:14.544Z,13.47
2023-05-24T19:00:41.066Z,13.42
2023-05-24T19:03:10.742Z,13.38
2023-05-24T19:05:37.836Z,13.40
2023-05-24T19:08:05.435Z,13.36
2023-05-24T19:10:31.920Z,13.40
2023-05-24T19:12:58.426Z,13.39
2023-05-24T19:15:24.925Z,13.35
2023-05-24T19:17:53.096Z,13.35
2023-05-24T19:20:19.630Z,13.30
2023-05-24T19:22:46.104Z,13.38
2023-05-24T19:25:12.777Z,13.40
2023-05-24T19:27:47.719Z,13.33
2023-05-24T19:30:21.690Z,13.28
2023-05-24T19:32:48.346Z,13.24
2023-05-24T19:35:14.881Z,13.11
2023-05-24T19:37:41.453Z,13.08
2023-05-24T19:40:08.392Z,13.06
2023-05-24T19:42:35.177Z,12.97
2023-05-24T19:45:01.727Z,12.90
2023-05-24T19:47:28.227Z,12.90
2023-05-24T19:49:54.810Z,12.86
2023-05-24T19:52:21.612Z,12.88
2023-05-24T19:54:48.158Z,12.83
2023-05-24T19:57:14.619Z,12.83
2023-05-24T19:59:41.143Z,12.83
2023-05-24T20:02:07.679Z,12.80
2023-05-24T20:04:34.159Z,12.73
2023-05-24T20:07:00.667Z,12.68
2023-05-24T20:09:27.195Z,12.68
2023-05-24T20:11:53.677Z,12.65
2023-05-24T20:14:20.108Z,12.55
2023-05-24T20:16:46.670Z,12.54
2023-05-24T20:19:13.451Z,12.55
2023-05-24T20:21:39.941Z,12.49
2023-05-24T20:24:06.547Z,12.45
2023-05-24T20:26:34.984Z,12.41
2023-05-24T20:29:01.465Z,12.39
2023-05-24T20:31:28.026Z,12.29
2023-05-24T20:33:54.664Z,12.28
2023-05-24T20:36:22.051Z,12.22
2023-05-24T20:38:49.131Z,12.11
2023-05-24T20:41:16.394Z,12.05
2023-05-24T20:43:42.881Z,11.97
2023-05-24T20:46:09.449Z,11.86
2023-05-24T20:48:35.976Z,11.74
2023-05-24T20:51:02.551Z,11.67
2023-05-24T20:53:28.980Z,11.55
2023-05-24T20:55:56.556Z,11.50
2023-05-24T20:58:22.984Z,11.41
2023-05-24T21:00:49.456Z,11.36
2023-05-24T21:03:16.102Z,11.29
2023-05-24T21:05:43.245Z,11.23
2023-05-24T21:08:09.945Z,11.20
2023-05-24T21:10:38.045Z,11.12
2023-05-24T21:13:05.409Z,11.01
2023-05-24T21:15:31.964Z,10.98
2023-05-24T21:17:58.459Z,10.94
2023-05-24T21:20:25.078Z,10.86
2023-05-24T21:22:51.601Z,10.84
2023-05-24T21:25:18.156Z,10.80
2023-05-24T21:27:44.617Z,10.75
2023-05-24T21:30:11.746Z,10.69
2023-05-24T21:32:38.200Z,10.64
2023-05-24T21:35:05.234Z,10.65
2023-05-24T21:37:31.656Z,10.66
2023-05-24T21:39:58.163Z,10.61
2023-05-24T21:42:24.696Z,10.56
2023-05-24T21:44:51.163Z,10.52
2023-05-24T21:47:17.675Z,10.49
2023-05-24T21:49:44.451Z,10.47
2023-05-24T21:52:10.893Z,10.41
2023-05-24T21:54:37.365Z,10.36
2023-05-24T21:57:04.065Z,10.40
2023-05-24T21:59:30.613Z,10.38
2023-05-24T22:01:57.220Z,10.33
2023-05-24T22:04:23.754Z,10.31
2023-05-24T22:06:51.122Z,10.28
2023-05-24T22:09:17.650Z,10.26
2023-05-24T22:11:44.150Z,10.22
2023-05-24T22:14:10.970Z,10.22
2023-05-24T22:16:37.512Z,10.19
2023-05-24T22:19:11.461Z,10.17
2023-05-24T22:21:38.015Z,10.14
2023-05-24T22:24:04.852Z,10.11
2023-05-24T22:26:31.314Z,10.08
2023-05-24T22:29:00.883Z,10.03
2023-05-24T22:31:30.970Z,9.99
2023-05-24T22:34:01.127Z,9.88
2023-05-24T22:36:33.282Z,9.84
2023-05-24T22:39:00.774Z,9.79
2023-05-24T22:41:28.005Z,9.71
2023-05-24T22:43:56.227Z,9.71
2023-05-24T22:46:23.154Z,9.74
2023-05-24T22:48:53.407Z,9.69
2023-05-24T22:51:20.255Z,9.61
2023-05-24T22:53:47.877Z,9.59
2023-05-24T22:56:15.072Z,9.57
2023-05-24T22:58:41.525Z,9.56
2023-05-24T23:01:08.020Z,9.54
2023-05-24T23:03:34.744Z,9.53
2023-05-24T23:06:04.097Z,9.49
2023-05-24T23:08:34.805Z,9.43
2023-05-24T23:11:01.407Z,9.41
2023-05-24T23:13:28.101Z,9.34
2023-05-24T23:15:58.436Z,9.33
2023-05-24T23:18:26.369Z,9.28
2023-05-24T23:20:56.255Z,9.20
2023-05-24T23:23:23.900Z,9.17
2023-05-24T23:25:51.105Z,9.10
2023-05-24T23:28:17.650Z,9.03
2023-05-24T23:30:44.182Z,8.97
2023-05-24T23:33:10.946Z,8.97
2023-05-24T23:35:39.544Z,8.99
2023-05-24T23:38:06.464Z,8.98
2023-05-24T23:40:33.858Z,8.93
2023-05-24T23:43:00.600Z,8.89
2023-05-24T23:45:27.066Z,8.89
2023-05-24T23:47:53.754Z,8.88
2023-05-24T23:50:22.470Z,8.86
2023-05-24T23:52:49.656Z,8.82
2023-05-24T23:55:16.648Z,8.83
2023-05-24T23:57:43.208Z,8.84
